createdAt,value
2018-05-03T00:01:01.773Z,16.43
2018-05-03T00:03:29.266Z,17.23
2018-05-03T00:05:56.780Z,15.90
2018-05-03T00:08:24.274Z,16.33
2018-05-03T00:10:52.526Z,16.27
2018-05-03T00:13:20.041Z,17.00
2018-05-03T00:15:47.542Z,19.20
2018-05-03T00:18:15.043Z,18.03
2018-05-03T00:20:42.610Z,18.57
2018-05-03T00:23:10.126Z,18.83
2018-05-03T00:25:37.620Z,19.73
2018-05-03T00:28:05.136Z,20.63
2018-05-03T00:30:32.625Z,19.70
2018-05-03T00:33:00.123Z,19.47
2018-05-03T00:35:27.639Z,19.97
2018-05-03T00:37:55.894Z,19.60
2018-05-03T00:40:23.401Z,19.90
2018-05-03T00:42:50.936Z,21.20
2018-05-03T00:45:18.419Z,22.50
2018-05-03T00:47:45.935Z,22.63
2018-05-03T00:50:14.207Z,21.07
2018-05-03T00:52:42.475Z,22.43
2018-05-03T00:55:09.980Z,22.33
2018-05-03T00:57:37.485Z,23.07
2018-05-03T01:00:05.013Z,23.17
2018-05-03T01:02:32.504Z,22.93
2018-05-03T01:05:00.002Z,24.67
2018-05-03T01:07:27.518Z,24.70
2018-05-03T01:09:55.026Z,25.27
2018-05-03T01:12:22.536Z,27.70
2018-05-03T01:14:50.026Z,26.30
2018-05-03T01:17:18.298Z,26.33
2018-05-03T01:19:46.555Z,28.00
2018-05-03T01:22:14.775Z,27.07
2018-05-03T01:24:42.277Z,25.63
2018-05-03T01:27:10.285Z,26.37
2018-05-03T01:29:38.588Z,25.50
2018-05-03T01:32:06.090Z,25.97
2018-05-03T01:34:33.589Z,26.47
2018-05-03T01:37:01.097Z,27.47
2018-05-03T01:39:28.651Z,27.70
2018-05-03T01:41:56.152Z,26.63
2018-05-03T01:44:24.417Z,27.67
2018-05-03T01:46:52.692Z,25.93
2018-05-03T01:49:20.178Z,26.50
2018-05-03T01:51:47.683Z,28.87
2018-05-03T01:54:15.173Z,28.87
2018-05-03T01:56:43.447Z,28.17
2018-05-03T01:59:11.714Z,27.30
2018-05-03T02:01:39.215Z,27.90
2018-05-03T02:04:06.720Z,28.27
2018-05-03T02:06:34.246Z,27.43
2018-05-03T02:09:01.737Z,27.83
2018-05-03T02:11:29.230Z,29.60
2018-05-03T02:13:57.481Z,29.50
2018-05-03T02:16:24.977Z,30.13
2018-05-03T02:18:52.466Z,30.10
2018-05-03T02:21:19.965Z,31.07
2018-05-03T02:23:48.231Z,30.93
2018-05-03T02:26:15.752Z,32.87
2018-05-03T02:28:43.251Z,32.27
2018-05-03T02:31:10.756Z,33.17
2018-05-03T02:33:38.249Z,32.87
2018-05-03T02:36:05.747Z,31.73
2018-05-03T02:38:34.014Z,31.30
2018-05-03T02:41:02.285Z,30.80
2018-05-03T02:43:29.775Z,32.10
2018-05-03T02:45:57.272Z,33.10
2018-05-03T02:48:24.762Z,31.40
2018-05-03T02:50:53.029Z,30.57
2018-05-03T02:53:20.517Z,30.90
2018-05-03T02:55:48.030Z,31.70
2018-05-03T02:58:27.480Z,30.63
2018-05-03T03:01:12.845Z,30.60
2018-05-03T03:03:58.935Z,31.40
2018-05-03T03:06:43.938Z,31.00
2018-05-03T03:16:27.924Z,30.20
2018-05-03T03:19:14.039Z,29.60
2018-05-03T03:21:59.188Z,28.53
2018-05-03T03:27:52.049Z,29.80
2018-05-03T03:30:37.099Z,29.37
2018-05-03T03:33:16.366Z,30.07
2018-05-03T03:36:04.673Z,29.53
2018-05-03T03:38:44.102Z,30.37
2018-05-03T03:41:23.556Z,28.27
2018-05-03T03:44:02.902Z,30.53
2018-05-03T03:46:30.408Z,29.70
2018-05-03T03:48:58.686Z,39.17
2018-05-03T03:51:26.960Z,32.97
2018-05-03T03:53:55.270Z,56.20
2018-05-03T03:56:22.771Z,31.27
2018-05-03T03:58:50.297Z,32.03
2018-05-03T04:01:17.798Z,30.03
2018-05-03T04:03:46.063Z,30.67
2018-05-03T04:06:13.574Z,32.37
2018-05-03T04:08:41.078Z,31.70
2018-05-03T04:11:08.566Z,35.13
2018-05-03T04:13:36.827Z,35.43
2018-05-03T04:16:05.090Z,34.13
2018-05-03T04:18:44.441Z,36.47
2018-05-03T04:21:24.458Z,39.53
2018-05-03T04:24:12.609Z,42.57
2018-05-03T04:26:40.113Z,36.03
2018-05-03T04:29:07.605Z,35.03
2018-05-03T04:31:35.107Z,33.80
2018-05-03T04:34:02.606Z,33.60
2018-05-03T04:36:30.122Z,34.77
2018-05-03T04:38:57.618Z,35.47
2018-05-03T04:41:25.130Z,34.40
2018-05-03T04:43:52.619Z,33.87
2018-05-03T04:46:20.885Z,32.83
2018-05-03T04:48:49.181Z,36.77
2018-05-03T04:51:16.719Z,32.73
2018-05-03T04:53:44.987Z,31.53
2018-05-03T04:56:13.296Z,31.73
2018-05-03T04:58:40.785Z,30.53
2018-05-03T05:01:08.333Z,29.13
2018-05-03T05:03:35.850Z,29.67
2018-05-03T05:06:04.112Z,29.30
2018-05-03T05:08:31.608Z,29.77
2018-05-03T05:10:59.115Z,30.87
2018-05-03T05:13:26.606Z,31.83
2018-05-03T05:15:54.875Z,30.13
2018-05-03T05:18:23.170Z,30.50
2018-05-03T05:20:51.433Z,29.30
2018-05-03T05:23:19.690Z,29.97
2018-05-03T05:25:47.202Z,29.27
2018-05-03T05:28:14.694Z,28.40
2018-05-03T05:30:42.279Z,28.90
2018-05-03T05:33:09.735Z,29.40
2018-05-03T05:35:37.231Z,29.37
2018-05-03T05:38:04.738Z,29.30
2018-05-03T05:40:32.252Z,29.53
2018-05-03T05:42:59.745Z,30.23
2018-05-03T05:45:27.254Z,29.20
2018-05-03T05:47:54.761Z,30.13
2018-05-03T05:50:22.267Z,30.63
2018-05-03T05:52:50.527Z,32.33
2018-05-03T05:55:18.794Z,30.70
2018-05-03T05:57:46.310Z,32.23
2018-05-03T06:00:13.827Z,32.47
2018-05-03T06:02:42.086Z,31.70
2018-05-03T06:05:09.577Z,32.17
2018-05-03T06:07:37.086Z,35.70
2018-05-03T06:10:04.593Z,32.47
2018-05-03T06:12:32.106Z,31.27
2018-05-03T06:14:59.615Z,28.73
2018-05-03T06:17:27.110Z,30.10
2018-05-03T06:19:54.604Z,30.33
2018-05-03T06:22:22.099Z,31.53
2018-05-03T06:24:49.590Z,32.83
2018-05-03T06:27:17.091Z,31.40
2018-05-03T06:29:45.354Z,32.83
2018-05-03T06:32:13.672Z,32.00
2018-05-03T06:34:41.157Z,33.60
2018-05-03T06:37:08.649Z,33.13
2018-05-03T06:39:36.942Z,32.70
2018-05-03T06:42:04.485Z,32.23
2018-05-03T06:44:31.990Z,32.13
2018-05-03T06:46:59.558Z,33.87
2018-05-03T06:49:27.058Z,33.20
2018-05-03T06:51:54.556Z,31.77
2018-05-03T06:54:22.047Z,27.90
2018-05-03T06:56:49.556Z,33.20
2018-05-03T06:59:17.915Z,30.50
2018-05-03T07:01:45.430Z,32.20
2018-05-03T07:04:13.880Z,33.07
2018-05-03T07:06:41.299Z,33.53
2018-05-03T07:09:08.801Z,33.07
2018-05-03T07:11:36.309Z,32.50
2018-05-03T07:14:03.802Z,32.97
2018-05-03T07:16:32.342Z,34.73
2018-05-03T07:18:59.844Z,33.37
2018-05-03T07:21:28.111Z,32.20
2018-05-03T07:23:56.414Z,31.60
2018-05-03T07:26:23.874Z,32.53
2018-05-03T07:28:51.385Z,30.47
2018-05-03T07:31:18.888Z,30.63
2018-05-03T07:33:46.394Z,31.57
2018-05-03T07:36:13.885Z,30.03
2018-05-03T07:38:42.173Z,30.00
2018-05-03T07:41:09.690Z,30.63
2018-05-03T07:43:37.182Z,30.43
2018-05-03T07:46:05.450Z,28.80
2018-05-03T07:48:33.709Z,27.13
2018-05-03T07:51:01.222Z,28.77
2018-05-03T07:53:28.721Z,28.87
2018-05-03T07:55:56.222Z,28.57
2018-05-03T07:58:23.713Z,26.67
2018-05-03T08:00:51.218Z,27.53
2018-05-03T08:03:19.474Z,25.43
2018-05-03T08:05:47.793Z,25.23
2018-05-03T08:08:15.277Z,23.80
2018-05-03T08:10:42.790Z,23.50
2018-05-03T08:13:11.050Z,21.40
2018-05-03T08:15:38.559Z,30.00
2018-05-03T08:18:06.049Z,20.90
2018-05-03T08:20:33.548Z,21.13
2018-05-03T08:23:01.898Z,21.20
2018-05-03T08:25:29.410Z,21.40
2018-05-03T08:27:56.912Z,20.57
2018-05-03T08:30:24.406Z,19.63
2018-05-03T08:32:52.672Z,17.17
2018-05-03T08:35:20.970Z,18.57
2018-05-03T08:37:48.453Z,18.30
2018-05-03T08:40:15.959Z,17.40
2018-05-03T08:42:43.453Z,17.17
2018-05-03T08:45:10.955Z,16.93
2018-05-03T08:47:39.210Z,21.37
2018-05-03T08:50:06.716Z,16.53
2018-05-03T08:52:34.970Z,16.70
2018-05-03T08:55:02.460Z,16.33
2018-05-03T08:57:30.724Z,17.27
2018-05-03T08:59:58.206Z,16.37
2018-05-03T09:02:25.716Z,16.57
2018-05-03T09:04:53.220Z,16.73
2018-05-03T09:07:20.738Z,16.03
2018-05-03T09:09:48.236Z,14.73
2018-05-03T09:12:16.503Z,15.10
2018-05-03T09:14:44.757Z,15.07
2018-05-03T09:17:12.267Z,14.73
2018-05-03T09:19:39.757Z,14.30
2018-05-03T09:22:07.273Z,13.97
2018-05-03T09:24:34.779Z,14.57
2018-05-03T09:27:02.288Z,14.77
2018-05-03T09:29:29.783Z,14.00
2018-05-03T09:31:57.290Z,15.10
2018-05-03T09:34:25.581Z,14.77
2018-05-03T09:36:53.078Z,14.33
2018-05-03T09:39:20.613Z,14.53
2018-05-03T09:41:48.110Z,14.33
2018-05-03T09:44:15.595Z,17.10
2018-05-03T09:46:43.859Z,14.63
2018-05-03T09:49:12.120Z,15.37
2018-05-03T09:51:39.633Z,14.77
2018-05-03T09:54:07.171Z,15.00
2018-05-03T09:56:35.437Z,17.93
2018-05-03T09:59:02.961Z,14.80
2018-05-03T10:01:30.459Z,14.23
2018-05-03T10:03:58.722Z,14.50
2018-05-03T10:06:26.230Z,15.70
2018-05-03T10:08:53.717Z,14.73
2018-05-03T10:11:21.218Z,15.43
2018-05-03T10:13:49.474Z,14.40
2018-05-03T10:16:17.761Z,15.13
2018-05-03T10:18:45.251Z,14.67
2018-05-03T10:21:12.788Z,13.47
2018-05-03T10:23:41.042Z,13.87
2018-05-03T10:26:08.547Z,13.80
2018-05-03T10:28:36.038Z,13.50
2018-05-03T10:31:03.560Z,13.37
2018-05-03T10:33:31.063Z,12.47
2018-05-03T10:35:58.669Z,12.27
2018-05-03T10:38:26.075Z,11.50
2018-05-03T10:40:53.594Z,11.50
2018-05-03T10:43:21.094Z,11.23
2018-05-03T10:45:48.609Z,11.40
2018-05-03T10:48:16.168Z,11.63
2018-05-03T10:50:43.647Z,11.10
2018-05-03T10:53:11.134Z,11.40
2018-05-03T10:55:38.637Z,10.90
2018-05-03T10:58:06.135Z,10.90
2018-05-03T11:00:33.650Z,11.13
2018-05-03T11:03:01.158Z,11.17
2018-05-03T11:05:28.781Z,11.30
2018-05-03T11:07:56.234Z,10.60
2018-05-03T11:10:23.743Z,10.03
2018-05-03T11:12:51.242Z,22.20
2018-05-03T11:15:19.513Z,10.63
2018-05-03T11:17:47.782Z,9.43
2018-05-03T11:20:16.055Z,9.80
2018-05-03T11:22:43.551Z,9.93
2018-05-03T11:25:11.051Z,9.10
2018-05-03T11:27:38.563Z,8.53
2018-05-03T11:30:06.063Z,8.33
2018-05-03T11:32:33.550Z,8.13
2018-05-03T11:35:01.807Z,8.30
2018-05-03T11:37:29.302Z,8.30
2018-05-03T11:39:57.566Z,8.23
2018-05-03T11:42:25.831Z,8.10
2018-05-03T11:44:54.085Z,8.40
2018-05-03T11:47:21.591Z,9.20
2018-05-03T11:49:49.886Z,8.30
2018-05-03T11:52:17.383Z,7.63
2018-05-03T11:54:44.872Z,8.00
2018-05-03T11:57:13.143Z,8.03
2018-05-03T11:59:41.419Z,8.00
2018-05-03T12:02:09.699Z,8.47
2018-05-03T12:04:37.954Z,7.70
2018-05-03T12:07:05.496Z,7.63
2018-05-03T12:09:32.992Z,7.83
2018-05-03T12:12:01.270Z,7.53
2018-05-03T12:14:29.529Z,7.00
2018-05-03T12:16:57.039Z,7.00
2018-05-03T12:19:24.579Z,6.50
2018-05-03T12:21:52.848Z,6.43
2018-05-03T12:24:21.154Z,6.70
2018-05-03T12:26:49.401Z,6.67
2018-05-03T12:29:17.654Z,6.93
2018-05-03T12:31:45.159Z,6.33
2018-05-03T12:34:12.657Z,6.23
2018-05-03T12:36:40.200Z,5.83
2018-05-03T12:39:07.707Z,5.97
2018-05-03T12:41:36.017Z,5.90
2018-05-03T12:44:03.510Z,6.13
2018-05-03T12:46:31.036Z,6.07
2018-05-03T12:48:58.530Z,6.63
2018-05-03T12:51:26.047Z,6.20
2018-05-03T12:53:53.529Z,6.07
2018-05-03T12:56:21.054Z,6.13
2018-05-03T12:58:48.556Z,6.10
2018-05-03T13:01:16.076Z,5.83
2018-05-03T13:03:43.578Z,5.90
2018-05-03T13:06:11.073Z,6.50
2018-05-03T13:08:39.336Z,6.33
2018-05-03T13:11:06.870Z,6.43
2018-05-03T13:13:34.391Z,6.07
2018-05-03T13:16:01.883Z,6.37
2018-05-03T13:18:29.374Z,6.43
2018-05-03T13:20:57.646Z,6.33
2018-05-03T13:23:25.131Z,5.93
2018-05-03T13:25:52.634Z,6.13
2018-05-03T13:28:20.630Z,6.90
2018-05-03T13:30:48.131Z,6.17
2018-05-03T13:33:15.659Z,5.77
2018-05-03T13:35:43.908Z,5.33
2018-05-03T13:38:11.395Z,5.47
2018-05-03T13:40:39.673Z,5.57
2018-05-03T13:43:08.001Z,5.70
2018-05-03T13:45:36.231Z,5.60
2018-05-03T13:48:04.473Z,5.50
2018-05-03T13:50:31.974Z,5.80
2018-05-03T13:52:59.465Z,6.83
2018-05-03T13:55:26.995Z,13.30
2018-05-03T13:57:54.487Z,5.80
2018-05-03T14:00:21.987Z,5.80
2018-05-03T14:02:50.243Z,5.40
2018-05-03T14:05:17.903Z,5.57
2018-05-03T14:07:45.429Z,5.10
2018-05-03T14:10:12.926Z,5.63
2018-05-03T14:12:40.419Z,5.67
2018-05-03T14:15:08.674Z,5.43
2018-05-03T14:17:36.223Z,5.33
2018-05-03T14:20:04.362Z,5.30
2018-05-03T14:22:31.865Z,5.33
2018-05-03T14:24:59.349Z,5.10
2018-05-03T14:27:26.880Z,5.63
2018-05-03T14:29:54.394Z,5.40
2018-05-03T14:32:21.885Z,5.07
2018-05-03T14:34:49.373Z,5.00
2018-05-03T14:37:17.631Z,5.40
2018-05-03T14:39:45.128Z,5.83
2018-05-03T14:42:12.633Z,4.73
2018-05-03T14:44:40.121Z,5.10
2018-05-03T14:47:08.378Z,5.20
2018-05-03T14:49:35.866Z,5.30
2018-05-03T14:52:03.354Z,7.10
2018-05-03T14:54:30.853Z,10.40
2018-05-03T14:56:58.344Z,5.77
2018-05-03T14:59:25.844Z,5.20
2018-05-03T15:01:53.345Z,4.60
2018-05-03T15:04:21.602Z,5.70
2018-05-03T15:06:49.093Z,5.80
2018-05-03T15:09:16.592Z,5.30
2018-05-03T15:11:44.099Z,5.67
2018-05-03T15:14:12.358Z,5.60
2018-05-03T15:16:39.924Z,5.20
2018-05-03T15:19:07.403Z,5.00
2018-05-03T15:21:35.673Z,5.40
2018-05-03T15:24:03.934Z,5.37
2018-05-03T15:26:31.429Z,8.00
2018-05-03T15:28:58.916Z,6.77
2018-05-03T15:31:26.427Z,5.90
2018-05-03T15:33:54.691Z,5.80
2018-05-03T15:36:22.973Z,5.20
2018-05-03T15:38:51.215Z,5.57
2018-05-03T15:41:18.735Z,5.47
2018-05-03T15:43:46.239Z,5.93
2018-05-03T15:46:13.731Z,5.60
2018-05-03T15:48:41.998Z,5.47
2018-05-03T15:51:10.309Z,5.80
2018-05-03T15:53:37.792Z,6.00
2018-05-03T15:56:05.300Z,5.70
2018-05-03T15:58:33.569Z,5.80
2018-05-03T16:01:01.829Z,5.70
2018-05-03T16:03:29.324Z,5.70
2018-05-03T16:05:56.852Z,5.43
2018-05-03T16:08:24.358Z,5.63
2018-05-03T16:10:51.849Z,5.70
2018-05-03T16:13:19.335Z,5.43
2018-05-03T16:15:47.627Z,9.37
2018-05-03T16:18:15.986Z,14.83
2018-05-03T16:20:43.516Z,8.07
2018-05-03T16:23:11.010Z,6.33
2018-05-03T16:25:39.268Z,6.40
2018-05-03T16:28:06.779Z,9.23
2018-05-03T16:30:34.303Z,6.70
2018-05-03T16:33:02.570Z,6.20
2018-05-03T16:35:30.074Z,5.83
2018-05-03T16:37:57.558Z,6.00
2018-05-03T16:40:25.943Z,5.70
2018-05-03T16:42:53.435Z,5.73
2018-05-03T16:45:21.734Z,5.87
2018-05-03T16:47:49.266Z,6.00
2018-05-03T16:50:17.267Z,6.10
2018-05-03T16:52:44.755Z,6.17
2018-05-03T16:55:12.245Z,5.90
2018-05-03T16:57:39.744Z,5.73
2018-05-03T17:00:07.288Z,6.87
2018-05-03T17:02:38.425Z,6.20
2018-05-03T17:05:05.969Z,7.00
2018-05-03T17:07:33.674Z,6.67
2018-05-03T17:10:01.191Z,6.20
2018-05-03T17:12:28.839Z,7.63
2018-05-03T17:14:57.268Z,6.90
2018-05-03T17:17:24.775Z,6.73
2018-05-03T17:19:52.258Z,6.33
2018-05-03T17:22:19.790Z,6.50
2018-05-03T17:24:47.347Z,6.53
2018-05-03T17:27:14.872Z,6.93
2018-05-03T17:29:42.363Z,6.50
2018-05-03T17:32:10.676Z,8.70
2018-05-03T17:34:38.939Z,7.93
2018-05-03T17:37:06.492Z,7.67
2018-05-03T17:39:33.986Z,8.00
2018-05-03T17:42:01.501Z,10.07
2018-05-03T17:44:29.000Z,7.40
2018-05-03T17:46:56.501Z,6.70
2018-05-03T17:49:23.987Z,7.37
2018-05-03T17:51:51.510Z,6.93
2018-05-03T17:54:18.997Z,8.30
2018-05-03T17:56:46.496Z,8.30
2018-05-03T17:59:13.995Z,7.70
2018-05-03T18:01:41.495Z,7.53
2018-05-03T18:04:09.000Z,7.57
2018-05-03T18:06:36.519Z,8.10
2018-05-03T18:09:05.690Z,7.83
2018-05-03T18:11:33.205Z,8.63
2018-05-03T18:14:00.686Z,8.10
2018-05-03T18:16:28.238Z,8.10
2018-05-03T18:18:56.445Z,9.67
2018-05-03T18:21:24.037Z,9.60
2018-05-03T18:23:51.451Z,10.27
2018-05-03T18:26:19.030Z,9.33
2018-05-03T18:28:46.490Z,9.63
2018-05-03T18:31:13.981Z,9.47
2018-05-03T18:33:41.518Z,9.70
2018-05-03T18:36:09.792Z,8.63
2018-05-03T18:38:38.056Z,7.90
2018-05-03T18:41:05.553Z,8.17
2018-05-03T18:43:33.058Z,21.57
2018-05-03T18:46:00.562Z,9.70
2018-05-03T18:48:28.310Z,7.57
2018-05-03T18:50:56.584Z,9.07
2018-05-03T18:53:24.841Z,8.03
2018-05-03T18:55:52.343Z,7.33
2018-05-03T18:58:19.837Z,6.50
2018-05-03T19:00:47.382Z,6.10
2018-05-03T19:03:15.359Z,5.80
2018-05-03T19:05:42.854Z,6.03
2018-05-03T19:08:10.345Z,5.77
2018-05-03T19:10:37.835Z,5.73
2018-05-03T19:13:05.416Z,5.97
2018-05-03T19:15:32.882Z,5.23
2018-05-03T19:18:00.384Z,5.03
2018-05-03T19:20:27.887Z,4.13
2018-05-03T19:22:56.153Z,4.10
2018-05-03T19:25:23.669Z,3.87
2018-05-03T19:27:51.926Z,3.90
2018-05-03T19:30:20.201Z,3.83
2018-05-03T19:32:48.458Z,3.50
2018-05-03T19:35:15.951Z,3.53
2018-05-03T19:37:44.213Z,3.43
2018-05-03T19:40:12.479Z,3.50
2018-05-03T19:42:40.763Z,3.40
2018-05-03T19:45:09.043Z,3.20
2018-05-03T19:47:37.339Z,3.20
2018-05-03T19:50:04.798Z,8.07
2018-05-03T19:52:32.308Z,12.93
2018-05-03T19:54:59.786Z,4.93
2018-05-03T19:57:27.282Z,6.27
2018-05-03T19:59:54.783Z,3.03
2018-05-03T20:02:22.278Z,2.90
2018-05-03T20:04:50.601Z,2.80
2018-05-03T20:07:18.095Z,2.70
2018-05-03T20:09:45.601Z,2.80
2018-05-03T20:12:13.109Z,2.50
2018-05-03T20:14:40.599Z,2.33
2018-05-03T20:17:08.857Z,2.80
2018-05-03T20:19:37.139Z,2.40
2018-05-03T20:22:05.400Z,2.50
2018-05-03T20:24:32.886Z,2.27
2018-05-03T20:27:00.409Z,2.30
2018-05-03T20:29:27.896Z,2.20
2018-05-03T20:31:56.149Z,2.33
2018-05-03T20:34:23.647Z,2.30
2018-05-03T20:36:51.146Z,2.13
2018-05-03T20:39:18.639Z,2.03
2018-05-03T20:41:46.903Z,2.37
2018-05-03T20:44:15.162Z,2.30
2018-05-03T20:46:42.669Z,2.10
2018-05-03T20:49:10.166Z,2.13
2018-05-03T20:51:37.662Z,1.90
2018-05-03T20:54:05.909Z,2.23
2018-05-03T20:56:33.490Z,2.60
2018-05-03T20:59:00.970Z,2.10
2018-05-03T21:01:29.230Z,2.20
2018-05-03T21:03:57.512Z,2.30
2018-05-03T21:06:25.018Z,2.20
2018-05-03T21:08:52.511Z,2.17
2018-05-03T21:11:20.015Z,2.17
2018-05-03T21:13:47.503Z,2.07
2018-05-03T21:16:14.994Z,3.60
2018-05-03T21:18:42.481Z,2.80
2018-05-03T21:21:10.742Z,2.00
2018-05-03T21:23:38.997Z,2.03
2018-05-03T21:26:06.593Z,2.23
2018-05-03T21:28:34.066Z,2.03
2018-05-03T21:31:02.253Z,2.40
2018-05-03T21:33:29.732Z,2.10
2018-05-03T21:35:57.227Z,2.33
2018-05-03T21:38:25.512Z,2.70
2018-05-03T21:40:53.773Z,2.27
2018-05-03T21:43:22.023Z,2.20
2018-05-03T21:45:49.542Z,2.20
2018-05-03T21:48:17.022Z,2.73
2018-05-03T21:50:44.604Z,2.40
2018-05-03T21:53:12.881Z,2.30
2018-05-03T21:55:40.378Z,2.00
2018-05-03T21:58:08.633Z,2.20
2018-05-03T22:00:36.135Z,2.27
2018-05-03T22:03:03.631Z,2.37
2018-05-03T22:05:31.155Z,2.23
2018-05-03T22:07:58.650Z,2.47
2018-05-03T22:10:26.155Z,2.70
2018-05-03T22:12:53.641Z,2.47
2018-05-03T22:15:21.138Z,2.50
2018-05-03T22:17:48.626Z,2.30
2018-05-03T22:20:16.880Z,2.40
2018-05-03T22:22:44.381Z,2.30
2018-05-03T22:25:11.873Z,2.40
2018-05-03T22:27:39.355Z,2.40
2018-05-03T22:30:06.854Z,2.33
2018-05-03T22:32:34.346Z,2.37
2018-05-03T22:35:01.825Z,2.37
2018-05-03T22:37:29.607Z,2.73
2018-05-03T22:39:57.849Z,2.77
2018-05-03T22:42:25.334Z,2.17
2018-05-03T22:44:53.586Z,2.57
2018-05-03T22:47:21.083Z,2.57
2018-05-03T22:49:49.397Z,2.40
2018-05-03T22:52:16.887Z,2.83
2018-05-03T22:54:44.386Z,2.30
2018-05-03T22:57:11.889Z,2.47
2018-05-03T22:59:39.373Z,2.40
2018-05-03T23:02:06.862Z,2.20
2018-05-03T23:04:34.347Z,2.20
2018-05-03T23:07:01.862Z,2.37
2018-05-03T23:09:30.116Z,2.33
2018-05-03T23:11:57.629Z,2.30
2018-05-03T23:14:25.118Z,2.57
2018-05-03T23:16:53.207Z,2.20
2018-05-03T23:19:20.686Z,2.30
2018-05-03T23:21:48.939Z,2.60
2018-05-03T23:24:16.430Z,2.60
2018-05-03T23:26:44.687Z,2.40
2018-05-03T23:29:12.960Z,2.53
2018-05-03T23:31:40.459Z,2.40
2018-05-03T23:34:07.939Z,2.60
2018-05-03T23:36:35.438Z,2.67
2018-05-03T23:39:02.921Z,2.37
2018-05-03T23:41:30.447Z,2.43
2018-05-03T23:43:57.926Z,2.53
2018-05-03T23:46:26.178Z,2.73
2018-05-03T23:48:53.747Z,2.50
2018-05-03T23:51:21.266Z,2.80
2018-05-03T23:53:48.770Z,2.60
2018-05-03T23:56:17.025Z,2.50
2018-05-03T23:58:44.505Z,2.80
